Time;durP1;ratioP1;P1;durP2;ratioP2;P2;SDS_P1;SDS_P2;PMS_P1;PMS_P2;Temp;Humidity;BMP_temperature;BMP_pressure;BME280_temperature;BME280_humidity;BME280_pressure;Samples;Min_cycle;Max_cycle;Signal;HPM_P1;HPM_P2
2023/02/09 00:02:05;;;;;;;2.40;2.23;;;0.90;88.10;;;;;;5075567;28;20484;-70
2023/02/09 00:04:33;;;;;;;1.60;1.50;;;0.90;88.20;;;;;;5086159;28;20492;-70
2023/02/09 00:07:01;;;;;;;2.50;2.30;;;0.90;88.40;;;;;;5070171;28;20556;-70
2023/02/09 00:09:28;;;;;;;1.60;1.50;;;0.90;88.90;;;;;;5086738;28;20506;-70
2023/02/09 00:14:40;;;;;;;1.60;1.50;;;0.90;89.00;;;;;;5086361;28;20594;-70
2023/02/09 00:17:08;;;;;;;1.80;1.70;;;0.90;89.10;;;;;;5075948;28;20563;-69
2023/02/09 00:19:36;;;;;;;1.70;1.60;;;0.90;89.10;;;;;;5086185;28;20461;-70
2023/02/09 00:22:03;;;;;;;1.70;1.60;;;0.90;89.00;;;;;;5101551;22;20546;-71
2023/02/09 00:24:30;;;;;;;1.60;1.50;;;0.90;89.20;;;;;;5088356;28;20523;-71
2023/02/09 00:26:57;;;;;;;1.70;1.60;;;0.80;89.60;;;;;;5068467;28;20475;-70
2023/02/09 00:29:24;;;;;;;1.70;1.60;;;0.80;89.80;;;;;;5087187;28;20955;-71
2023/02/09 00:31:52;;;;;;;1.80;1.70;;;0.80;89.70;;;;;;5069931;28;20744;-70
2023/02/09 00:34:19;;;;;;;1.80;1.70;;;0.80;89.90;;;;;;5102827;28;20459;-70
2023/02/09 00:36:47;;;;;;;1.83;1.73;;;0.80;90.00;;;;;;5093175;28;20487;-70
2023/02/09 00:39:14;;;;;;;1.60;1.50;;;0.70;90.10;;;;;;5106373;28;20484;-70
2023/02/09 00:44:25;;;;;;;1.83;1.73;;;0.70;90.50;;;;;;5101696;28;20441;-70
2023/02/09 00:46:54;;;;;;;4.10;3.83;;;0.70;90.60;;;;;;5079013;28;20480;-70
2023/02/09 00:49:21;;;;;;;1.90;1.80;;;0.70;90.90;;;;;;5088043;28;20502;-71
2023/02/09 00:51:48;;;;;;;1.70;1.60;;;0.70;90.90;;;;;;5092155;28;21070;-70
2023/02/09 00:54:16;;;;;;;1.60;1.50;;;0.70;90.90;;;;;;5102556;28;20504;-70
2023/02/09 00:56:43;;;;;;;1.67;1.57;;;0.60;91.10;;;;;;5090896;28;20562;-70
2023/02/09 00:59:10;;;;;;;1.83;1.73;;;0.60;91.00;;;;;;5087700;28;20488;-70
2023/02/09 01:01:37;;;;;;;1.93;1.83;;;0.60;91.10;;;;;;5087626;28;21004;-70
2023/02/09 01:04:06;;;;;;;1.70;1.60;;;0.60;91.20;;;;;;5102850;28;20575;-70
2023/02/09 01:06:33;;;;;;;1.70;1.60;;;0.60;91.40;;;;;;5090059;28;20471;-70
2023/02/09 01:09:00;;;;;;;1.80;1.70;;;0.60;91.50;;;;;;5107625;28;20456;-70
2023/02/09 01:11:28;;;;;;;1.70;1.60;;;0.60;91.60;;;;;;5097098;28;20536;-71
2023/02/09 01:13:57;;;;;;;1.57;1.47;;;0.60;91.90;;;;;;5101396;28;20484;-70
2023/02/09 01:16:27;;;;;;;1.60;1.50;;;0.60;91.90;;;;;;5090293;28;20471;-70
2023/02/09 01:18:54;;;;;;;1.73;1.63;;;0.60;91.70;;;;;;5107431;28;20475;-70
2023/02/09 01:21:23;;;;;;;1.70;1.60;;;0.60;91.70;;;;;;5081239;28;20552;-70
2023/02/09 01:23:51;;;;;;;1.70;1.60;;;0.70;91.50;;;;;;5105207;28;20482;-71
2023/02/09 01:26:18;;;;;;;1.70;1.60;;;0.70;91.50;;;;;;5087091;28;20468;-70
2023/02/09 01:28:49;;;;;;;71.00;18.50;;;0.70;91.50;;;;;;5104488;28;20462;-70
2023/02/09 01:31:23;;;;;;;1.70;1.60;;;0.70;91.60;;;;;;5095571;28;20872;-70
2023/02/09 01:33:50;;;;;;;2.00;1.90;;;0.70;91.70;;;;;;5108781;28;20509;-71
2023/02/09 01:36:17;;;;;;;1.70;1.60;;;0.70;91.80;;;;;;5094490;28;20468;-70
2023/02/09 01:38:46;;;;;;;1.70;1.60;;;0.60;91.70;;;;;;5098353;28;20511;-70
2023/02/09 01:41:13;;;;;;;1.70;1.60;;;0.60;92.10;;;;;;5089023;28;20565;-70
2023/02/09 01:43:52;;;;;;;1.80;1.70;;;0.60;92.00;;;;;;5101390;28;20600;-70
2023/02/09 01:46:19;;;;;;;1.73;1.63;;;0.60;92.10;;;;;;5086520;28;20521;-70
2023/02/09 01:48:47;;;;;;;1.70;1.60;;;0.60;92.50;;;;;;5108693;28;20997;-71
2023/02/09 01:51:15;;;;;;;1.83;1.73;;;0.60;92.50;;;;;;5099059;28;20503;-71
2023/02/09 01:53:43;;;;;;;1.73;1.63;;;0.50;92.60;;;;;;5109325;28;20479;-71
2023/02/09 01:56:16;;;;;;;1.70;1.60;;;0.50;92.80;;;;;;5090596;28;20480;-70
2023/02/09 01:58:45;;;;;;;1.60;1.50;;;0.50;92.80;;;;;;5109000;28;20527;-71
2023/02/09 02:01:13;;;;;;;1.60;1.50;;;0.50;92.80;;;;;;5094596;28;20849;-70
2023/02/09 02:03:40;;;;;;;1.60;1.50;;;0.60;92.80;;;;;;5097697;28;20976;-71
2023/02/09 02:06:11;;;;;;;1.70;1.60;;;0.50;92.90;;;;;;5096311;28;21217;-71
2023/02/09 02:08:41;;;;;;;1.70;1.60;;;0.50;93.00;;;;;;5104862;28;20823;-70
2023/02/09 02:11:10;;;;;;;1.70;1.60;;;0.50;93.00;;;;;;5095772;28;20476;-71
2023/02/09 02:13:38;;;;;;;3.07;2.87;;;0.50;93.10;;;;;;5108156;28;20482;-71
2023/02/09 02:16:14;;;;;;;1.70;1.60;;;0.50;93.20;;;;;;5096823;28;20466;-71
2023/02/09 02:19:14;;;;;;;4.37;4.13;;;0.50;93.30;;;;;;5108480;28;20482;-70
2023/02/09 02:22:12;;;;;;;1.70;1.60;;;0.50;93.40;;;;;;5095393;28;20528;-71
2023/02/09 02:25:27;;;;;;;1.80;1.70;;;0.40;93.60;;;;;;5099191;28;20464;-70
2023/02/09 02:28:10;;;;;;;1.70;1.60;;;0.40;93.80;;;;;;5080242;28;20981;-69
2023/02/09 02:30:58;;;;;;;1.80;1.70;;;0.40;93.80;;;;;;5108973;28;20447;-70
2023/02/09 02:33:34;;;;;;;1.77;1.67;;;0.30;94.10;;;;;;5075801;28;20524;-69
2023/02/09 02:36:09;;;;;;;1.80;1.70;;;0.40;94.10;;;;;;5090258;28;20455;-70
2023/02/09 02:38:39;;;;;;;1.80;1.70;;;0.30;94.10;;;;;;5105316;28;20935;-70
2023/02/09 02:41:14;;;;;;;1.80;1.70;;;0.30;94.20;;;;;;5096354;28;20890;-69
2023/02/09 02:43:50;;;;;;;2.10;2.00;;;0.30;94.60;;;;;;5098812;28;21017;-69
2023/02/09 02:46:25;;;;;;;2.77;2.57;;;0.30;94.60;;;;;;5093235;28;20471;-69
2023/02/09 02:49:00;;;;;;;1.70;1.60;;;0.30;94.60;;;;;;5097064;28;20456;-70
2023/02/09 02:51:32;;;;;;;24.43;5.37;;;0.20;94.90;;;;;;5097337;28;20474;-70
2023/02/09 02:54:05;;;;;;;1.70;1.60;;;0.20;95.00;;;;;;5107580;28;20472;-70
2023/02/09 02:56:36;;;;;;;1.90;1.80;;;0.20;95.40;;;;;;5091132;28;20507;-70
2023/02/09 02:59:07;;;;;;;4.13;3.93;;;0.20;95.60;;;;;;5105813;28;20479;-70
2023/02/09 03:01:41;;;;;;;1.70;1.60;;;0.20;95.70;;;;;;5091412;28;20945;-70
2023/02/09 03:04:11;;;;;;;1.80;1.70;;;0.10;95.90;;;;;;5107024;28;20487;-71
2023/02/09 03:06:38;;;;;;;2.63;2.43;;;0.10;96.00;;;;;;5089775;28;20487;-70
2023/02/09 03:09:05;;;;;;;1.70;1.60;;;0.10;96.10;;;;;;5096156;28;20456;-70
2023/02/09 03:11:37;;;;;;;1.80;1.70;;;0.00;96.00;;;;;;5090692;28;20529;-70
2023/02/09 03:14:35;;;;;;;1.70;1.60;;;0.00;96.80;;;;;;5098915;28;21060;-70
2023/02/09 03:17:19;;;;;;;1.80;1.70;;;0.00;96.80;;;;;;5080274;28;20489;-70
2023/02/09 03:19:54;;;;;;;1.80;1.70;;;0.00;97.20;;;;;;5099189;28;20487;-70
2023/02/09 03:22:29;;;;;;;1.80;1.70;;;0.00;97.20;;;;;;5080605;28;20531;-70
2023/02/09 03:25:02;;;;;;;1.70;1.60;;;0.00;97.30;;;;;;5106761;28;20521;-71
2023/02/09 03:27:32;;;;;;;1.70;1.60;;;0.00;97.40;;;;;;5087407;28;20558;-70
2023/02/09 03:30:03;;;;;;;1.80;1.70;;;0.00;97.40;;;;;;5104591;28;21016;-70
2023/02/09 03:32:30;;;;;;;1.80;1.70;;;0.00;97.50;;;;;;5082152;28;20480;-70
2023/02/09 03:34:59;;;;;;;1.70;1.60;;;0.00;97.50;;;;;;5107433;27;20455;-70
2023/02/09 03:37:26;;;;;;;1.70;1.60;;;0.00;97.30;;;;;;5087955;28;20483;-70
2023/02/09 03:39:53;;;;;;;1.70;1.60;;;0.00;97.20;;;;;;5098952;28;20859;-71
2023/02/09 03:42:20;;;;;;;1.80;1.70;;;0.00;97.10;;;;;;5087200;28;20533;-70
2023/02/09 03:44:48;;;;;;;1.70;1.60;;;0.00;97.40;;;;;;5106651;28;21151;-70
2023/02/09 03:47:15;;;;;;;1.80;1.70;;;0.00;97.40;;;;;;5079009;28;20467;-70
2023/02/09 03:49:44;;;;;;;1.70;1.60;;;-0.10;97.70;;;;;;5107362;28;20459;-70
2023/02/09 03:52:15;;;;;;;1.70;1.60;;;-0.10;97.50;;;;;;5087810;28;20491;-70
2023/02/09 03:54:42;;;;;;;1.70;1.60;;;-0.10;98.20;;;;;;5099847;28;20452;-70
2023/02/09 03:57:10;;;;;;;1.80;1.70;;;-0.20;98.00;;;;;;5085185;28;20484;-70
2023/02/09 03:59:38;;;;;;;1.70;1.60;;;-0.20;98.20;;;;;;5105575;28;20479;-71
2023/02/09 04:02:07;;;;;;;13.97;12.77;;;-0.20;98.20;;;;;;5080006;28;21018;-71
2023/02/09 04:04:34;;;;;;;1.70;1.60;;;-0.20;98.20;;;;;;5098524;28;20991;-70
2023/02/09 04:07:01;;;;;;;1.70;1.60;;;-0.30;98.20;;;;;;5085357;28;20538;-70
2023/02/09 04:09:30;;;;;;;1.70;1.60;;;-0.20;98.20;;;;;;5098172;28;20455;-71
2023/02/09 04:11:57;;;;;;;2.20;2.10;;;-0.20;98.20;;;;;;5079920;28;20499;-70
2023/02/09 04:14:24;;;;;;;1.80;1.70;;;-0.30;98.20;;;;;;5092332;28;20500;-70
2023/02/09 04:16:51;;;;;;;1.80;1.70;;;-0.20;98.20;;;;;;5077956;28;21267;-70
2023/02/09 04:19:18;;;;;;;1.70;1.60;;;-0.20;98.20;;;;;;5092102;28;20475;-70
2023/02/09 04:21:45;;;;;;;1.70;1.60;;;-0.20;98.20;;;;;;5081786;28;20476;-71
2023/02/09 04:24:12;;;;;;;2.27;2.10;;;-0.20;98.20;;;;;;5092103;28;21187;-70
2023/02/09 04:26:40;;;;;;;1.70;1.60;;;-0.20;98.20;;;;;;5077651;28;20500;-70
2023/02/09 04:29:07;;;;;;;9.93;8.10;;;-0.30;98.20;;;;;;5093869;28;20514;-70
2023/02/09 04:31:34;;;;;;;1.80;1.70;;;-0.30;98.20;;;;;;5076027;28;20504;-70
2023/02/09 04:34:01;;;;;;;1.87;1.77;;;-0.30;98.20;;;;;;5092743;28;20490;-70
2023/02/09 04:36:28;;;;;;;2.83;2.63;;;-0.30;98.20;;;;;;5085367;28;20502;-71
2023/02/09 04:38:55;;;;;;;1.80;1.70;;;-0.30;98.20;;;;;;5091449;28;20496;-71
2023/02/09 04:41:22;;;;;;;1.70;1.60;;;-0.30;98.20;;;;;;5084004;28;20514;-70
2023/02/09 04:43:51;;;;;;;1.70;1.60;;;-0.30;98.20;;;;;;5095002;28;20563;-71
2023/02/09 04:46:18;;;;;;;9.37;8.67;;;-0.30;98.20;;;;;;5081229;28;20483;-70
2023/02/09 04:48:45;;;;;;;1.70;1.60;;;-0.30;98.20;;;;;;5091880;28;20456;-71
2023/02/09 04:51:12;;;;;;;1.80;1.70;;;-0.30;98.20;;;;;;5084733;28;20482;-70
2023/02/09 04:53:39;;;;;;;1.80;1.70;;;-0.30;98.20;;;;;;5100395;28;20555;-70
2023/02/09 04:56:07;;;;;;;2.87;2.67;;;-0.30;98.20;;;;;;5088360;28;22461;-70
2023/02/09 05:01:23;;;;;;;1.87;1.77;;;-0.30;98.20;;;;;;5085056;28;20470;-70
2023/02/09 05:03:50;;;;;;;1.70;1.60;;;-0.40;98.20;;;;;;5100301;28;20898;-70
2023/02/09 05:06:17;;;;;;;1.70;1.60;;;-0.40;98.20;;;;;;5080271;28;20472;-70
2023/02/09 05:08:44;;;;;;;1.80;1.70;;;-0.50;98.20;;;;;;5091991;28;20464;-71
2023/02/09 05:11:12;;;;;;;1.70;1.60;;;-0.50;98.20;;;;;;5082877;28;20464;-70
2023/02/09 05:13:39;;;;;;;1.80;1.70;;;-0.60;98.20;;;;;;5092817;28;20479;-70
2023/02/09 05:16:07;;;;;;;1.83;1.73;;;-0.60;98.20;;;;;;5082379;28;20481;-70
2023/02/09 05:18:36;;;;;;;1.80;1.70;;;-0.60;98.20;;;;;;5094976;28;20460;-70
2023/02/09 05:21:03;;;;;;;1.70;1.60;;;-0.60;98.20;;;;;;5085994;28;20492;-70
2023/02/09 05:23:31;;;;;;;1.80;1.70;;;-0.60;98.20;;;;;;5096688;28;20871;-71
2023/02/09 05:25:58;;;;;;;1.77;1.67;;;-0.60;98.20;;;;;;5087032;28;20452;-71
2023/02/09 05:28:25;;;;;;;1.80;1.70;;;-0.50;98.20;;;;;;5093053;28;20484;-71
2023/02/09 05:30:53;;;;;;;1.80;1.70;;;-0.50;98.20;;;;;;5083286;28;20838;-71
2023/02/09 05:33:20;;;;;;;1.80;1.70;;;-0.50;98.20;;;;;;5098653;28;20482;-71
2023/02/09 05:35:50;;;;;;;1.80;1.70;;;-0.40;98.20;;;;;;5088464;28;20960;-71
2023/02/09 05:38:17;;;;;;;1.70;1.60;;;-0.50;98.20;;;;;;5098945;28;20469;-71
2023/02/09 05:40:44;;;;;;;1.70;1.60;;;-0.50;98.20;;;;;;5092581;28;20496;-71
2023/02/09 05:43:11;;;;;;;1.90;1.80;;;-0.50;98.20;;;;;;5087906;28;20492;-71
2023/02/09 05:45:38;;;;;;;1.77;1.67;;;-0.60;98.20;;;;;;5094555;28;20572;-71
2023/02/09 05:48:05;;;;;;;1.80;1.70;;;-0.60;98.20;;;;;;5083368;28;20568;-71
2023/02/09 05:50:32;;;;;;;1.80;1.70;;;-0.60;98.20;;;;;;5095251;28;20455;-71
2023/02/09 05:53:00;;;;;;;1.80;1.70;;;-0.70;98.20;;;;;;5084233;28;20551;-71
2023/02/09 05:55:27;;;;;;;1.70;1.60;;;-0.70;98.20;;;;;;5096558;28;20480;-71
2023/02/09 05:57:54;;;;;;;1.73;1.63;;;-0.70;98.20;;;;;;5083215;28;20475;-70
2023/02/09 06:00:23;;;;;;;1.70;1.60;;;-0.80;98.20;;;;;;5092945;28;20552;-71
2023/02/09 06:02:50;;;;;;;1.70;1.60;;;-0.80;98.20;;;;;;5084930;28;20494;-71
2023/02/09 06:05:19;;;;;;;4.30;3.90;;;-0.90;98.20;;;;;;5098149;28;20490;-71
2023/02/09 06:07:46;;;;;;;1.93;1.83;;;-0.90;98.20;;;;;;5086589;28;20576;-71
2023/02/09 06:10:15;;;;;;;1.90;1.80;;;-0.90;98.20;;;;;;5099711;28;20456;-71
2023/02/09 06:12:41;;;;;;;4.47;4.07;;;-0.90;98.20;;;;;;5086676;28;20511;-71
2023/02/09 06:15:10;;;;;;;1.80;1.70;;;-0.90;98.20;;;;;;5098812;28;20944;-71
2023/02/09 06:17:37;;;;;;;1.90;1.80;;;-0.90;98.20;;;;;;5083414;28;20985;-71
2023/02/09 06:20:05;;;;;;;1.90;1.80;;;-1.00;98.20;;;;;;5102441;28;20527;-71
2023/02/09 06:22:32;;;;;;;1.80;1.70;;;-1.00;98.20;;;;;;5082359;28;20516;-71
2023/02/09 06:24:59;;;;;;;1.80;1.70;;;-1.00;98.20;;;;;;5099378;28;20489;-70
2023/02/09 06:27:27;;;;;;;1.90;1.80;;;-1.00;98.20;;;;;;5080361;28;20575;-71
2023/02/09 06:29:54;;;;;;;1.77;1.67;;;-1.00;98.20;;;;;;5092793;28;20460;-71
2023/02/09 06:32:21;;;;;;;1.80;1.70;;;-1.00;98.20;;;;;;5079402;28;20685;-71
2023/02/09 06:34:48;;;;;;;1.80;1.70;;;-1.00;98.20;;;;;;5097148;28;20921;-71
2023/02/09 06:37:15;;;;;;;1.90;1.80;;;-1.00;98.20;;;;;;5086003;28;20487;-71
2023/02/09 06:39:42;;;;;;;1.83;1.73;;;-1.00;98.20;;;;;;5087498;28;21229;-71
2023/02/09 06:42:09;;;;;;;1.90;1.80;;;-1.00;98.20;;;;;;5077405;28;20567;-71
2023/02/09 06:44:38;;;;;;;1.80;1.70;;;-1.00;98.20;;;;;;5097762;28;20475;-71
2023/02/09 06:47:05;;;;;;;1.80;1.70;;;-1.00;98.20;;;;;;5080823;28;20520;-72
2023/02/09 06:49:33;;;;;;;1.80;1.70;;;-1.00;98.20;;;;;;5089041;28;20504;-71
2023/02/09 06:52:00;;;;;;;1.80;1.70;;;-1.00;98.20;;;;;;5082140;28;20491;-70
2023/02/09 06:54:28;;;;;;;2.00;1.90;;;-1.00;98.20;;;;;;5096200;28;20494;-70
2023/02/09 06:57:13;;;;;;;1.80;1.70;;;-1.00;98.20;;;;;;5080383;28;20913;-71
2023/02/09 06:59:42;;;;;;;1.80;1.70;;;-1.00;98.20;;;;;;5095104;28;20487;-72
2023/02/09 07:02:10;;;;;;;4.63;4.23;;;-1.00;98.20;;;;;;5081632;28;20562;-72
2023/02/09 07:04:37;;;;;;;1.80;1.70;;;-1.00;98.20;;;;;;5089019;28;20568;-72
2023/02/09 07:07:05;;;;;;;2.00;1.90;;;-1.00;98.20;;;;;;5086759;28;20603;-72
2023/02/09 07:09:32;;;;;;;1.90;1.80;;;-1.00;98.20;;;;;;5100138;28;20465;-69
2023/02/09 07:11:59;;;;;;;1.80;1.70;;;-1.00;98.20;;;;;;5088319;28;20483;-70
2023/02/09 07:14:26;;;;;;;2.20;2.10;;;-1.00;98.20;;;;;;5099140;28;20499;-70
2023/02/09 07:16:55;;;;;;;1.87;1.77;;;-0.90;98.20;;;;;;5090199;28;20771;-71
2023/02/09 07:19:21;;;;;;;1.90;1.80;;;-0.90;98.20;;;;;;5097688;28;20986;-70
2023/02/09 07:21:49;;;;;;;1.70;1.60;;;-0.90;98.20;;;;;;5087510;28;20933;-71
2023/02/09 07:24:16;;;;;;;1.80;1.70;;;-0.90;98.20;;;;;;5103677;28;20573;-70
2023/02/09 07:26:43;;;;;;;1.70;1.60;;;-0.90;98.20;;;;;;5093292;28;20602;-71
2023/02/09 07:29:10;;;;;;;1.80;1.70;;;-0.90;98.20;;;;;;5101060;28;20509;-71
2023/02/09 07:31:37;;;;;;;1.80;1.70;;;-0.80;98.20;;;;;;5087691;28;20484;-70
2023/02/09 07:34:05;;;;;;;1.80;1.70;;;-0.80;98.20;;;;;;5098260;28;20483;-70
2023/02/09 07:36:33;;;;;;;1.70;1.60;;;-0.70;98.20;;;;;;5091023;28;20480;-71
2023/02/09 07:39:00;;;;;;;1.70;1.60;;;-0.70;98.20;;;;;;5097495;28;20499;-70
2023/02/09 07:41:27;;;;;;;1.80;1.70;;;-0.60;98.20;;;;;;5084261;28;20494;-70
2023/02/09 07:43:56;;;;;;;1.77;1.67;;;-0.50;98.20;;;;;;5103574;28;20482;-70
2023/02/09 07:46:24;;;;;;;1.73;1.63;;;-0.40;98.20;;;;;;5094932;28;20927;-70
2023/02/09 07:48:51;;;;;;;1.70;1.60;;;-0.30;98.20;;;;;;5106277;28;20522;-71
2023/02/09 07:51:24;;;;;;;1.70;1.60;;;-0.10;98.20;;;;;;5094919;27;20534;-71
2023/02/09 07:53:51;;;;;;;1.70;1.60;;;0.00;98.20;;;;;;5101647;28;20649;-70
2023/02/09 07:56:19;;;;;;;1.70;1.60;;;0.10;98.20;;;;;;5092712;28;20895;-71
2023/02/09 07:58:46;;;;;;;3.10;2.80;;;0.30;98.20;;;;;;5102710;28;20471;-71
2023/02/09 08:01:14;;;;;;;1.70;1.60;;;0.40;98.20;;;;;;5094485;28;20489;-70
2023/02/09 08:03:44;;;;;;;1.70;1.60;;;0.50;98.20;;;;;;5104569;28;20507;-70
2023/02/09 08:06:17;;;;;;;1.60;1.50;;;0.70;98.20;;;;;;5092485;28;20707;-73
2023/02/09 08:08:46;;;;;;;2.03;1.93;;;0.80;98.20;;;;;;5101376;28;20537;-71
2023/02/09 08:11:17;;;;;;;1.70;1.60;;;0.90;98.10;;;;;;5091060;28;20567;-72
2023/02/09 08:13:46;;;;;;;1.70;1.60;;;1.00;98.10;;;;;;5099402;28;20521;-71
2023/02/09 08:16:18;;;;;;;1.80;1.70;;;1.00;97.60;;;;;;5084246;28;20487;-71
2023/02/09 08:18:49;;;;;;;1.93;1.83;;;1.10;97.50;;;;;;5102634;28;20474;-72
2023/02/09 08:21:19;;;;;;;1.70;1.60;;;1.20;97.60;;;;;;5094312;28;20602;-72
2023/02/09 08:23:52;;;;;;;1.70;1.60;;;1.30;97.90;;;;;;5109735;28;20489;-73
2023/02/09 08:26:20;;;;;;;1.60;1.50;;;1.50;97.40;;;;;;5094293;28;20553;-71
2023/02/09 08:28:48;;;;;;;1.80;1.70;;;1.60;97.00;;;;;;5109097;28;20455;-71
2023/02/09 08:31:18;;;;;;;6.83;6.40;;;1.70;96.30;;;;;;5089428;28;20885;-72
2023/02/09 08:33:48;;;;;;;2.10;1.97;;;1.90;96.00;;;;;;5108034;28;20479;-70
2023/02/09 08:36:17;;;;;;;1.60;1.50;;;2.00;95.30;;;;;;5094930;28;20483;-72
2023/02/09 08:38:46;;;;;;;1.70;1.60;;;2.00;94.60;;;;;;5108560;28;20536;-71
2023/02/09 08:41:17;;;;;;;1.63;1.53;;;2.00;94.90;;;;;;5097454;28;20562;-71
2023/02/09 08:43:48;;;;;;;1.60;1.50;;;2.10;95.30;;;;;;5108551;28;20355;-72
2023/02/09 08:46:16;;;;;;;1.60;1.50;;;2.20;94.00;;;;;;5099432;27;20655;-71
2023/02/09 08:48:45;;;;;;;1.70;1.60;;;2.20;93.50;;;;;;5103339;28;20478;-71
2023/02/09 08:51:15;;;;;;;1.70;1.60;;;2.30;93.60;;;;;;5093795;28;20510;-71
2023/02/09 08:53:46;;;;;;;1.70;1.60;;;2.40;93.20;;;;;;5106488;28;20472;-71
2023/02/09 08:56:17;;;;;;;2.20;2.00;;;2.60;94.70;;;;;;5096524;28;21017;-71
2023/02/09 08:58:44;;;;;;;1.60;1.40;;;2.70;92.60;;;;;;5108245;28;20208;-71
2023/02/09 09:01:12;;;;;;;1.60;1.50;;;2.80;92.50;;;;;;5097281;28;20532;-72
2023/02/09 09:03:41;;;;;;;1.60;1.40;;;2.80;92.20;;;;;;5109655;28;20490;-71
2023/02/09 09:06:10;;;;;;;1.60;1.40;;;2.90;92.50;;;;;;5090922;28;20483;-71
2023/02/09 09:08:38;;;;;;;1.60;1.40;;;2.90;91.60;;;;;;5108412;28;20504;-71
2023/02/09 09:11:11;;;;;;;1.60;1.40;;;2.90;92.00;;;;;;5094520;28;20456;-71
2023/02/09 09:13:40;;;;;;;1.60;1.40;;;3.00;91.60;;;;;;5098240;28;20479;-71
2023/02/09 09:16:13;;;;;;;1.60;1.40;;;3.00;90.90;;;;;;5098164;28;20464;-72
2023/02/09 09:22:32;;;;;;;1.60;1.40;;;3.10;91.50;;;;;;5025945;28;20470;-72
2023/02/09 09:25:00;;;;;;;1.60;1.40;;;3.20;90.90;;;;;;5076843;28;20477;-72
2023/02/09 09:27:31;;;;;;;1.60;1.50;;;3.30;90.40;;;;;;5101385;28;20483;-72
2023/02/09 09:30:01;;;;;;;1.70;1.60;;;3.40;90.40;;;;;;5114441;28;20505;-72
2023/02/09 09:32:29;;;;;;;1.60;1.40;;;3.50;90.30;;;;;;5097812;28;20495;-72
2023/02/09 09:34:58;;;;;;;1.60;1.30;;;3.60;89.70;;;;;;5111452;28;20459;-71
2023/02/09 09:37:27;;;;;;;1.60;1.30;;;3.70;90.00;;;;;;5100619;28;20501;-72
2023/02/09 09:39:54;;;;;;;1.60;1.33;;;3.80;90.10;;;;;;5111695;28;20459;-72
2023/02/09 09:42:28;;;;;;;2.50;2.30;;;4.00;89.30;;;;;;5097305;22;20611;-72
2023/02/09 09:44:58;;;;;;;1.60;1.40;;;4.10;88.50;;;;;;5098027;28;20539;-72
2023/02/09 09:47:37;;;;;;;1.57;1.30;;;4.10;87.90;;;;;;5079208;28;20490;-72
2023/02/09 09:50:07;;;;;;;1.60;1.40;;;4.10;87.80;;;;;;5087557;28;20470;-71
2023/02/09 09:52:38;;;;;;;1.60;1.40;;;4.20;89.10;;;;;;5083032;28;20475;-70
2023/02/09 09:55:08;;;;;;;1.60;1.30;;;4.30;87.60;;;;;;5100839;28;20567;-71
2023/02/09 09:57:42;;;;;;;1.60;1.30;;;4.50;88.00;;;;;;5088543;28;21235;-71
2023/02/09 10:00:17;;;;;;;1.60;1.30;;;4.50;86.50;;;;;;5101740;28;20501;-72
2023/02/09 10:02:46;;;;;;;1.57;1.30;;;4.40;87.10;;;;;;5078533;28;20480;-72
2023/02/09 10:05:18;;;;;;;1.53;1.30;;;4.50;87.60;;;;;;5101050;28;20810;-71
2023/02/09 10:07:53;;;;;;;1.57;1.30;;;4.50;86.40;;;;;;5094825;28;20614;-73
2023/02/09 10:10:30;;;;;;;1.57;1.30;;;4.50;85.80;;;;;;5101687;28;20746;-72
2023/02/09 10:13:01;;;;;;;3.53;3.33;;;4.60;86.70;;;;;;5080096;28;20494;-71
2023/02/09 10:15:31;;;;;;;2.23;2.03;;;4.80;85.80;;;;;;5100212;28;20466;-72
2023/02/09 10:18:00;;;;;;;13.90;4.80;;;4.80;86.40;;;;;;5074394;28;20519;-71
2023/02/09 10:20:49;;;;;;;1.60;1.40;;;5.00;85.30;;;;;;5100374;28;20532;-71
2023/02/09 10:23:19;;;;;;;1.60;1.30;;;5.00;84.00;;;;;;5077051;28;20476;-71
2023/02/09 10:25:54;;;;;;;1.60;1.30;;;5.10;85.00;;;;;;5108280;28;20544;-72
2023/02/09 10:28:22;;;;;;;1.57;1.30;;;5.20;84.80;;;;;;5077036;28;20471;-71
2023/02/09 10:30:54;;;;;;;1.57;1.30;;;5.30;84.30;;;;;;5084655;28;20525;-71
2023/02/09 10:33:23;;;;;;;1.60;1.40;;;5.40;83.60;;;;;;5105385;28;20479;-72
2023/02/09 10:35:53;;;;;;;4.17;3.93;;;5.40;83.30;;;;;;5094902;28;20467;-72
2023/02/09 10:38:22;;;;;;;1.53;1.30;;;5.30;82.50;;;;;;5100824;28;20468;-71
2023/02/09 10:40:50;;;;;;;2.43;2.23;;;5.30;82.90;;;;;;5096569;28;20483;-73
2023/02/09 10:43:23;;;;;;;1.60;1.20;;;5.30;83.00;;;;;;5087271;28;20491;-72
2023/02/09 10:45:56;;;;;;;1.50;1.27;;;5.30;83.60;;;;;;5088727;28;20936;-72
2023/02/09 10:48:26;;;;;;;1.60;1.30;;;5.30;83.80;;;;;;5083656;28;20456;-72
2023/02/09 10:50:56;;;;;;;1.83;1.67;;;5.30;83.30;;;;;;5090015;28;20477;-73
2023/02/09 10:53:26;;;;;;;1.60;1.30;;;5.30;83.20;;;;;;5107479;28;20475;-72
2023/02/09 10:56:02;;;;;;;1.57;1.30;;;5.40;83.80;;;;;;5092758;28;20478;-71
2023/02/09 10:58:32;;;;;;;1.60;1.30;;;5.50;83.60;;;;;;5084227;28;20518;-72
2023/02/09 11:01:17;;;;;;;1.50;1.30;;;5.60;81.70;;;;;;5092047;28;21035;-72
2023/02/09 11:04:01;;;;;;;1.50;1.20;;;5.50;81.70;;;;;;5087758;28;20474;-72
2023/02/09 11:06:33;;;;;;;1.53;1.30;;;5.60;82.80;;;;;;5094951;28;20498;-72
2023/02/09 11:09:07;;;;;;;1.60;1.30;;;5.70;82.00;;;;;;5102660;28;20811;-75
2023/02/09 11:11:37;;;;;;;1.60;1.30;;;5.90;81.60;;;;;;5090615;28;21062;-74
2023/02/09 11:14:06;;;;;;;1.53;1.20;;;6.10;80.90;;;;;;5105004;28;21546;-74
2023/02/09 11:16:53;;;;;;;1.57;1.20;;;6.30;81.50;;;;;;5093967;28;20486;-72
2023/02/09 11:19:58;;;;;;;12.20;7.00;;;6.60;80.10;;;;;;5096180;28;20893;-72
2023/02/09 11:22:46;;;;;;;1.57;1.20;;;6.70;79.10;;;;;;5073724;28;20535;-73
2023/02/09 11:25:21;;;;;;;1.50;1.20;;;6.80;79.10;;;;;;5105920;28;20471;-73
2023/02/09 11:28:03;;;;;;;1.50;1.20;;;6.90;79.10;;;;;;5087398;28;20566;-72
2023/02/09 11:31:00;;;;;;;1.57;1.20;;;7.10;78.50;;;;;;5097351;28;20489;-72
2023/02/09 11:33:39;;;;;;;1.50;1.20;;;7.20;78.70;;;;;;5076121;28;20488;-72
2023/02/09 11:36:24;;;;;;;1.60;1.40;;;7.20;77.60;;;;;;5085343;28;20517;-72
2023/02/09 11:38:56;;;;;;;1.60;1.30;;;6.80;77.40;;;;;;5097354;28;20463;-73
2023/02/09 11:44:24;;;;;;;1.60;1.20;;;6.50;78.10;;;;;;5095876;28;20540;-72
2023/02/09 11:47:03;;;;;;;2.63;2.43;;;6.40;78.60;;;;;;5082402;28;20487;-72
2023/02/09 11:49:40;;;;;;;1.60;1.30;;;6.40;77.80;;;;;;5098142;28;20466;-72
2023/02/09 11:52:16;;;;;;;1.60;1.20;;;6.50;79.40;;;;;;5085111;28;20544;-72
2023/02/09 11:54:46;;;;;;;1.67;1.57;;;6.70;78.90;;;;;;5106605;28;20459;-72
2023/02/09 11:57:25;;;;;;;1.60;1.40;;;6.90;77.40;;;;;;5080521;28;20484;-71
2023/02/09 11:59:55;;;;;;;1.67;1.50;;;7.10;78.00;;;;;;5102921;28;20444;-72
2023/02/09 12:02:41;;;;;;;2.67;2.47;;;7.20;77.20;;;;;;5074608;28;20517;-72
2023/02/09 12:05:12;;;;;;;5.43;2.80;;;7.40;77.40;;;;;;5088886;28;20543;-72
2023/02/09 12:07:45;;;;;;;1.50;1.20;;;7.30;75.80;;;;;;5085611;28;20480;-73
2023/02/09 12:10:23;;;;;;;1.53;1.20;;;7.20;75.90;;;;;;5088951;28;20456;-72
2023/02/09 12:12:55;;;;;;;1.50;1.20;;;7.20;77.40;;;;;;5065941;28;20596;-71
2023/02/09 12:15:26;;;;;;;1.53;1.20;;;7.30;77.40;;;;;;5092813;28;20488;-72
2023/02/09 12:17:57;;;;;;;1.60;1.30;;;7.50;77.20;;;;;;5068838;28;21432;-73
2023/02/09 12:20:28;;;;;;;1.60;1.20;;;7.60;77.40;;;;;;5097191;28;20510;-74
2023/02/09 12:23:19;;;;;;;15.37;9.90;;;7.80;77.50;;;;;;5073539;28;20480;-72
2023/02/09 12:25:54;;;;;;;1.53;1.20;;;8.00;76.60;;;;;;5092146;28;20862;-73
2023/02/09 12:28:44;;;;;;;1.53;1.20;;;8.20;75.90;;;;;;5074554;28;20589;-72
2023/02/09 12:31:23;;;;;;;1.60;1.20;;;8.00;74.30;;;;;;5076249;28;20610;-73
2023/02/09 12:34:20;;;;;;;1.57;1.20;;;7.90;74.90;;;;;;5086171;28;20488;-73
2023/02/09 12:37:28;;;;;;;1.60;1.30;;;7.80;75.00;;;;;;5075625;28;20541;-73
2023/02/09 12:40:23;;;;;;;1.50;1.20;;;7.70;75.40;;;;;;5097163;28;20550;-72
2023/02/09 12:43:23;;;;;;;1.57;1.23;;;7.60;76.40;;;;;;5076156;28;20703;-71
2023/02/09 12:46:18;;;;;;;1.60;1.30;;;7.80;76.60;;;;;;5087231;28;21027;-72
2023/02/09 12:49:09;;;;;;;3.53;3.27;;;8.00;75.60;;;;;;5084912;28;20464;-71
2023/02/09 12:51:47;;;;;;;1.60;1.20;;;8.10;76.50;;;;;;5087904;28;20860;-71
2023/02/09 12:54:34;;;;;;;1.67;1.57;;;8.20;75.60;;;;;;5092504;28;20487;-72
2023/02/09 12:57:53;;;;;;;1.57;1.20;;;8.30;76.10;;;;;;5076746;28;20884;-73
2023/02/09 13:00:42;;;;;;;1.57;1.20;;;8.30;75.20;;;;;;5016788;28;20455;-71
2023/02/09 13:03:19;;;;;;;1.53;1.10;;;8.40;75.60;;;;;;5088203;28;20479;-71
2023/02/09 13:05:49;;;;;;;1.50;1.20;;;8.40;75.10;;;;;;5095162;28;20458;-71
2023/02/09 13:08:47;;;;;;;1.53;1.10;;;8.40;75.60;;;;;;5070662;28;20468;-72
2023/02/09 13:11:26;;;;;;;1.60;1.20;;;8.40;74.90;;;;;;5073410;28;20894;-71
2023/02/09 13:13:56;;;;;;;1.50;1.17;;;8.40;74.50;;;;;;5085115;28;20502;-72
2023/02/09 13:16:59;;;;;;;1.57;1.17;;;8.30;74.80;;;;;;5087213;28;20900;-72
2023/02/09 13:19:50;;;;;;;1.57;1.20;;;8.30;74.30;;;;;;5090967;28;20459;-72
2023/02/09 13:22:33;;;;;;;1.80;1.57;;;8.30;75.20;;;;;;5086299;28;20574;-72
2023/02/09 13:25:09;;;;;;;1.53;1.10;;;8.30;75.50;;;;;;5100247;28;20487;-72
2023/02/09 13:27:47;;;;;;;1.60;1.20;;;8.30;74.90;;;;;;5084107;28;20471;-72
2023/02/09 13:30:25;;;;;;;1.60;1.50;;;8.40;75.50;;;;;;5099470;28;20464;-71
2023/02/09 13:33:03;;;;;;;1.60;1.20;;;8.40;75.50;;;;;;5084032;28;20486;-72